Packsville, West Virginia
Current Conditions -  °F | °C
As of 6:51 PM on Monday 20 Oct 2014 (Local Time) from KBKW Reporting Station
Overcast Overcast  
Wind Chill: 53°   Ceiling: 9500
Heat Index: 53°   Visibility: 10mi
Dew Point: 43°   Wind: 7mph
Humidity: 69%   Direction: 210°SSW
Pressure: 29.96"   Gusts: NA
Location:  37.9764°N, 81.5271°W
Report Text: KBKW 202251Z AUTO 21006KT 10SM OVC095 12/06 A2996 RMK AO2 SLP154 T01170061 TSNO
Loading
Personal Weather Stations






























Interactive Weather Map
Tropical Storm Tracking
New forecast layout! Learn more

10-Day Weather Forecast

Advertisements
Track Severe Weather on mobile